createdAt,value
2023-05-01T00:01:39.992Z,96402.88
2023-05-01T00:04:07.018Z,96404.88
2023-05-01T00:06:34.243Z,96404.06
2023-05-01T00:09:01.205Z,96391.91
2023-05-01T00:11:28.027Z,96393.97
2023-05-01T00:13:54.798Z,96386.28
2023-05-01T00:16:21.807Z,96388.72
2023-05-01T00:18:48.657Z,96378.56
2023-05-01T00:21:15.616Z,96377.16
2023-05-01T00:23:42.393Z,96378.59
2023-05-01T00:26:09.317Z,96369.25
2023-05-01T00:28:36.136Z,96367.66
2023-05-01T00:31:02.990Z,96357.91
2023-05-01T00:33:29.822Z,96367.84
2023-05-01T00:35:56.879Z,96361.78
2023-05-01T00:38:24.320Z,96361.97
2023-05-01T00:40:51.149Z,96362.56
2023-05-01T00:43:17.984Z,96349.56
2023-05-01T00:45:46.435Z,96351.22
2023-05-01T00:48:14.039Z,96351.84
2023-05-01T00:50:41.955Z,96352.66
2023-05-01T00:53:08.834Z,96355.72
2023-05-01T00:55:35.910Z,96361.97
2023-05-01T00:58:03.778Z,96361.19
2023-05-01T01:00:31.007Z,96358.31
2023-05-01T01:02:57.908Z,96349.81
2023-05-01T01:05:28.394Z,96343.72
2023-05-01T01:08:16.845Z,96342.72
2023-05-01T01:10:59.034Z,96339.09
2023-05-01T01:13:51.187Z,96334.84
2023-05-01T01:16:41.305Z,96340.34
2023-05-01T01:19:29.163Z,96334.06
2023-05-01T01:22:03.843Z,96331.63
2023-05-01T01:25:23.626Z,96339.72
2023-05-01T01:28:11.901Z,96334.06
2023-05-01T01:30:49.623Z,96336.06
2023-05-01T01:33:34.906Z,96332.63
2023-05-01T01:36:11.844Z,96336.88
2023-05-01T01:38:46.638Z,96336.25
2023-05-01T01:41:31.890Z,96327.97
2023-05-01T01:44:10.168Z,96337.69
2023-05-01T01:46:40.063Z,96334.44
2023-05-01T01:49:13.555Z,96325.94
2023-05-01T01:51:42.273Z,96329.97
2023-05-01T01:54:11.981Z,96329.19
2023-05-01T01:56:42.264Z,96321.69
2023-05-01T01:59:11.097Z,96316.00
2023-05-01T02:01:41.544Z,96314.00
2023-05-01T02:04:10.031Z,96320.66
2023-05-01T02:06:39.512Z,96317.81
2023-05-01T02:09:07.621Z,96315.19
2023-05-01T02:11:37.738Z,96308.06
2023-05-01T02:14:06.071Z,96294.72
2023-05-01T02:16:35.286Z,96296.38
2023-05-01T02:19:05.182Z,96299.63
2023-05-01T02:21:37.403Z,96289.47
2023-05-01T02:24:06.562Z,96290.50
2023-05-01T02:26:43.010Z,96287.00
2023-05-01T02:29:10.831Z,96287.03
2023-05-01T02:31:37.799Z,96286.66
2023-05-01T02:34:04.635Z,96280.56
2023-05-01T02:36:33.309Z,96282.56
2023-05-01T02:39:01.312Z,96274.91
2023-05-01T02:41:29.568Z,96280.53
2023-05-01T02:44:06.806Z,96277.91
2023-05-01T02:46:37.388Z,96280.16
2023-05-01T02:49:05.961Z,96283.56
2023-05-01T02:51:33.493Z,96280.94
2023-05-01T02:54:00.601Z,96277.09
2023-05-01T02:56:28.057Z,96277.72
2023-05-01T02:58:55.459Z,96276.47
2023-05-01T03:01:22.589Z,96272.44
2023-05-01T03:03:49.536Z,96269.59
2023-05-01T03:06:17.004Z,96271.22
2023-05-01T03:08:44.363Z,96267.13
2023-05-01T03:11:11.184Z,96263.53
2023-05-01T03:13:37.993Z,96261.91
2023-05-01T03:16:05.248Z,96256.22
2023-05-01T03:18:32.117Z,96259.44
2023-05-01T03:20:58.949Z,96250.41
2023-05-01T03:23:26.127Z,96249.38
2023-05-01T03:25:54.736Z,96248.72
2023-05-01T03:28:23.537Z,96244.84
2023-05-01T03:30:53.981Z,96251.38
2023-05-01T03:33:20.833Z,96251.19
2023-05-01T03:35:48.043Z,96250.56
2023-05-01T03:38:15.094Z,96249.34
2023-05-01T03:40:41.935Z,96244.50
2023-05-01T03:43:08.781Z,96247.25
2023-05-01T03:45:35.565Z,96240.84
2023-05-01T03:48:02.491Z,96246.53
2023-05-01T03:50:29.321Z,96241.28
2023-05-01T03:52:56.527Z,96233.00
2023-05-01T03:55:23.411Z,96234.00
2023-05-01T03:57:50.753Z,96242.91
2023-05-01T04:00:18.036Z,96239.66
2023-05-01T04:02:45.089Z,96236.00
2023-05-01T04:05:12.339Z,96238.84
2023-05-01T04:07:39.532Z,96239.63
2023-05-01T04:10:09.548Z,96247.94
2023-05-01T04:12:36.777Z,96243.72
2023-05-01T04:15:04.217Z,96237.47
2023-05-01T04:17:31.971Z,96235.84
2023-05-01T04:19:59.138Z,96240.91
2023-05-01T04:22:26.104Z,96241.72
2023-05-01T04:24:53.017Z,96234.03
2023-05-01T04:27:20.087Z,96235.66
2023-05-01T04:29:46.954Z,96235.25
2023-05-01T04:32:13.753Z,96244.56
2023-05-01T04:34:40.599Z,96244.56
2023-05-01T04:37:09.016Z,96247.22
2023-05-01T04:39:36.474Z,96237.31
2023-05-01T04:42:04.600Z,96236.88
2023-05-01T04:44:34.155Z,96248.84
2023-05-01T04:47:04.998Z,96248.22
2023-05-01T04:49:32.137Z,96246.59
2023-05-01T04:51:58.908Z,96255.91
2023-05-01T04:54:25.768Z,96262.38
2023-05-01T04:56:52.685Z,96253.44
2023-05-01T04:59:19.544Z,96247.34
2023-05-01T05:01:46.496Z,96249.75
2023-05-01T05:04:13.570Z,96250.75
2023-05-01T05:06:40.652Z,96251.38
2023-05-01T05:09:07.607Z,96256.94
2023-05-01T05:11:34.420Z,96254.81
2023-05-01T05:14:01.247Z,96251.09
2023-05-01T05:16:28.130Z,96246.16
2023-05-01T05:18:57.352Z,96250.97
2023-05-01T05:21:24.270Z,96252.50
2023-05-01T05:23:51.120Z,96242.91
2023-05-01T05:26:18.578Z,96249.28
2023-05-01T05:28:45.732Z,96243.69
2023-05-01T05:31:12.556Z,96237.59
2023-05-01T05:33:39.345Z,96237.50
2023-05-01T05:36:06.669Z,96230.13
2023-05-01T05:38:33.530Z,96229.00
2023-05-01T05:41:01.792Z,96239.50
2023-05-01T05:43:28.682Z,96234.22
2023-05-01T05:45:59.655Z,96238.28
2023-05-01T05:48:27.635Z,96239.97
2023-05-01T05:50:54.544Z,96238.94
2023-05-01T05:53:23.013Z,96243.84
2023-05-01T05:55:52.108Z,96241.84
2023-05-01T05:58:23.118Z,96238.19
2023-05-01T06:00:50.784Z,96243.34
2023-05-01T06:03:17.691Z,96242.03
2023-05-01T06:05:45.138Z,96239.66
2023-05-01T06:08:12.543Z,96246.03
2023-05-01T06:10:43.728Z,96238.50
2023-05-01T06:13:13.159Z,96240.03
2023-05-01T06:15:41.847Z,96238.97
2023-05-01T06:18:09.171Z,96241.72
2023-05-01T06:20:36.560Z,96234.41
2023-05-01T06:23:03.517Z,96237.94
2023-05-01T06:25:30.994Z,96238.75
2023-05-01T06:27:57.886Z,96243.50
2023-05-01T06:30:24.712Z,96242.88
2023-05-01T06:32:51.606Z,96241.84
2023-05-01T06:35:18.632Z,96243.13
2023-05-01T06:37:45.558Z,96240.38
2023-05-01T06:40:12.615Z,96247.34
2023-05-01T06:42:40.386Z,96244.56
2023-05-01T06:45:08.284Z,96249.50
2023-05-01T06:47:35.741Z,96246.31
2023-05-01T06:50:05.715Z,96243.69
2023-05-01T06:52:32.796Z,96241.63
2023-05-01T06:54:59.755Z,96247.91
2023-05-01T06:57:26.574Z,96247.09
2023-05-01T06:59:54.186Z,96249.06
2023-05-01T07:02:21.386Z,96243.53
2023-05-01T07:04:48.353Z,96244.69
2023-05-01T07:07:15.197Z,96243.28
2023-05-01T07:09:42.015Z,96240.16
2023-05-01T07:12:08.906Z,96246.06
2023-05-01T07:14:36.191Z,96244.16
2023-05-01T07:17:03.653Z,96239.94
2023-05-01T07:19:30.653Z,96238.84
2023-05-01T07:21:57.735Z,96232.00
2023-05-01T07:24:25.049Z,96231.66
2023-05-01T07:26:51.928Z,96233.63
2023-05-01T07:29:18.735Z,96239.34
2023-05-01T07:31:48.274Z,96232.47
2023-05-01T07:34:17.195Z,96225.41
2023-05-01T07:36:44.080Z,96227.81
2023-05-01T07:39:10.967Z,96230.91
2023-05-01T07:41:37.866Z,96233.88
2023-05-01T07:44:04.734Z,96241.75
2023-05-01T07:46:32.065Z,96231.13
2023-05-01T07:48:59.088Z,96234.34
2023-05-01T07:51:25.949Z,96236.59
2023-05-01T07:53:53.029Z,96236.16
2023-05-01T07:56:19.919Z,96239.94
2023-05-01T07:58:46.792Z,96242.53
2023-05-01T08:01:13.775Z,96235.63
2023-05-01T08:03:40.682Z,96234.75
2023-05-01T08:06:07.712Z,96246.38
2023-05-01T08:08:34.670Z,96239.19
2023-05-01T08:11:01.508Z,96244.75
2023-05-01T08:13:28.427Z,96239.84
2023-05-01T08:15:55.389Z,96247.28
2023-05-01T08:18:22.330Z,96235.78
2023-05-01T08:20:49.885Z,96236.50
2023-05-01T08:23:17.706Z,96252.56
2023-05-01T08:25:50.703Z,96250.50
2023-05-01T08:28:21.263Z,96249.97
2023-05-01T08:30:49.428Z,96246.63
2023-05-01T08:33:16.615Z,96246.66
2023-05-01T08:35:43.572Z,96251.66
2023-05-01T08:38:11.736Z,96249.25
2023-05-01T08:40:41.200Z,96252.47
2023-05-01T08:43:08.278Z,96262.13
2023-05-01T08:45:38.249Z,96254.94
2023-05-01T08:48:13.081Z,96260.13
2023-05-01T08:50:41.457Z,96258.75
2023-05-01T08:53:12.152Z,96251.75
2023-05-01T08:55:39.807Z,96259.31
2023-05-01T08:58:09.205Z,96262.97
2023-05-01T09:00:37.184Z,96261.81
2023-05-01T09:03:05.165Z,96263.63
2023-05-01T09:05:33.536Z,96262.03
2023-05-01T09:08:00.995Z,96262.72
2023-05-01T09:10:31.758Z,96265.28
2023-05-01T09:13:02.144Z,96271.94
2023-05-01T09:15:30.703Z,96269.38
2023-05-01T09:18:03.213Z,96276.78
2023-05-01T09:20:32.504Z,96268.38
2023-05-01T09:22:59.551Z,96276.72
2023-05-01T09:25:26.478Z,96266.31
2023-05-01T09:27:53.904Z,96268.09
2023-05-01T09:30:39.790Z,96261.31
2023-05-01T09:33:12.750Z,96270.16
2023-05-01T09:35:51.856Z,96276.13
2023-05-01T09:38:24.489Z,96275.00
2023-05-01T09:40:56.640Z,96266.16
2023-05-01T09:43:28.292Z,96261.38
2023-05-01T09:46:09.316Z,96274.41
2023-05-01T09:48:37.616Z,96271.75
2023-05-01T09:51:27.525Z,96270.41
2023-05-01T09:54:04.889Z,96281.38
2023-05-01T09:56:34.386Z,96283.22
2023-05-01T09:59:20.023Z,96282.78
2023-05-01T10:01:50.098Z,96280.91
2023-05-01T10:04:17.629Z,96275.81
2023-05-01T10:06:44.499Z,96280.81
2023-05-01T10:09:17.344Z,96277.91
2023-05-01T10:11:49.451Z,96279.78
2023-05-01T10:14:16.648Z,96275.84
2023-05-01T10:16:44.460Z,96271.69
2023-05-01T10:19:12.581Z,96280.00
2023-05-01T10:21:39.479Z,96276.25
2023-05-01T10:24:07.779Z,96288.94
2023-05-01T10:26:35.047Z,96290.16
2023-05-01T10:29:02.475Z,96296.47
2023-05-01T10:31:29.975Z,96293.16
2023-05-01T10:33:57.083Z,96284.03
2023-05-01T10:36:33.252Z,96289.56
2023-05-01T10:39:00.492Z,96286.91
2023-05-01T10:41:58.206Z,96285.53
2023-05-01T10:44:28.272Z,96283.22
2023-05-01T10:46:55.537Z,96293.59
2023-05-01T10:49:22.727Z,96292.44
2023-05-01T10:52:00.064Z,96293.72
2023-05-01T10:54:33.498Z,96291.44
2023-05-01T10:57:02.863Z,96289.38
2023-05-01T11:00:01.181Z,96283.66
2023-05-01T11:02:28.201Z,96289.47
2023-05-01T11:04:56.403Z,96283.84
2023-05-01T11:07:24.844Z,96277.38
2023-05-01T11:09:55.319Z,96280.53
2023-05-01T11:12:50.947Z,96279.97
2023-05-01T11:15:27.702Z,96288.41
2023-05-01T11:17:55.862Z,96278.75
2023-05-01T11:20:25.893Z,96284.00
2023-05-01T11:22:57.348Z,96274.06
2023-05-01T11:25:27.869Z,96280.25
2023-05-01T11:28:03.312Z,96276.50
2023-05-01T11:30:40.833Z,96271.22
2023-05-01T11:33:10.574Z,96269.03
2023-05-01T11:35:38.982Z,96269.19
2023-05-01T11:38:06.731Z,96272.75
2023-05-01T11:40:36.867Z,96274.84
2023-05-01T11:43:08.542Z,96269.75
2023-05-01T11:45:37.558Z,96280.56
2023-05-01T11:48:14.812Z,96278.56
2023-05-01T11:50:42.010Z,96283.50
2023-05-01T11:53:17.514Z,96265.56
2023-05-01T11:55:45.545Z,96273.88
2023-05-01T11:58:13.256Z,96270.34
2023-05-01T12:00:42.796Z,96271.72
2023-05-01T12:03:11.919Z,96276.75
2023-05-01T12:05:42.586Z,96278.38
2023-05-01T12:08:21.784Z,96274.00
2023-05-01T12:10:56.133Z,96279.13
2023-05-01T12:13:24.183Z,96275.47
2023-05-01T12:15:55.500Z,96281.06
2023-05-01T12:18:22.876Z,96276.56
2023-05-01T12:20:52.971Z,96279.69
2023-05-01T12:23:31.863Z,96279.44
2023-05-01T12:25:58.785Z,96280.22
2023-05-01T12:28:27.592Z,96271.28
2023-05-01T12:31:04.709Z,96274.88
2023-05-01T12:33:32.901Z,96277.66
2023-05-01T12:36:13.112Z,96275.44
2023-05-01T12:38:39.977Z,96278.09
2023-05-01T12:41:09.390Z,96279.63
2023-05-01T12:43:38.171Z,96279.69
2023-05-01T12:46:06.877Z,96276.91
2023-05-01T12:48:40.170Z,96276.84
2023-05-01T12:51:07.648Z,96278.97
2023-05-01T12:53:34.572Z,96282.78
2023-05-01T12:56:03.238Z,96280.25
2023-05-01T12:58:37.234Z,96279.19
2023-05-01T13:01:04.485Z,96276.47
2023-05-01T13:03:32.064Z,96275.44
2023-05-01T13:06:01.315Z,96269.22
2023-05-01T13:08:36.117Z,96275.09
2023-05-01T13:11:15.031Z,96271.38
2023-05-01T13:13:44.278Z,96271.94
2023-05-01T13:16:16.292Z,96278.03
2023-05-01T13:18:48.935Z,96264.28
2023-05-01T13:21:21.486Z,96270.63
2023-05-01T13:24:00.925Z,96267.06
2023-05-01T13:26:35.180Z,96261.38
2023-05-01T13:29:05.556Z,96257.09
2023-05-01T13:31:32.620Z,96264.56
2023-05-01T13:34:00.327Z,96256.03
2023-05-01T13:36:35.143Z,96249.31
2023-05-01T13:39:03.268Z,96255.97
2023-05-01T13:41:30.545Z,96257.56
2023-05-01T13:43:57.619Z,96259.88
2023-05-01T13:46:27.106Z,96259.91
2023-05-01T13:48:54.123Z,96270.97
2023-05-01T13:51:26.398Z,96270.66
2023-05-01T13:53:54.148Z,96277.00
2023-05-01T13:56:21.766Z,96274.84
2023-05-01T13:58:50.256Z,96263.59
2023-05-01T14:01:23.354Z,96274.03
2023-05-01T14:03:50.692Z,96274.63
2023-05-01T14:06:21.159Z,96284.75
2023-05-01T14:08:49.180Z,96277.66
2023-05-01T14:11:16.385Z,96275.19
2023-05-01T14:13:46.449Z,96273.03
2023-05-01T14:16:28.133Z,96269.94
2023-05-01T14:18:57.030Z,96268.72
2023-05-01T14:21:28.173Z,96267.31
2023-05-01T14:23:56.942Z,96256.72
2023-05-01T14:26:24.645Z,96258.41
2023-05-01T14:28:51.653Z,96260.69
2023-05-01T14:31:25.310Z,96266.66
2023-05-01T14:34:02.192Z,96264.22
2023-05-01T14:36:32.999Z,96266.91
2023-05-01T14:39:02.429Z,96261.09
2023-05-01T14:41:30.310Z,96258.63
2023-05-01T14:43:57.453Z,96265.19
2023-05-01T14:46:30.622Z,96269.16
2023-05-01T14:48:59.506Z,96270.00
2023-05-01T14:51:31.532Z,96270.38
2023-05-01T14:53:58.589Z,96262.59
2023-05-01T14:56:25.625Z,96259.72
2023-05-01T14:58:52.588Z,96259.75
2023-05-01T15:01:20.196Z,96263.97
2023-05-01T15:03:47.383Z,96253.53
2023-05-01T15:06:14.544Z,96251.50
2023-05-01T15:08:41.655Z,96256.25
2023-05-01T15:11:08.806Z,96256.41
2023-05-01T15:13:36.346Z,96261.78
2023-05-01T15:16:03.704Z,96266.88
2023-05-01T15:18:30.556Z,96276.34
2023-05-01T15:20:57.464Z,96274.16
2023-05-01T15:23:27.212Z,96275.13
2023-05-01T15:25:54.481Z,96269.06
2023-05-01T15:28:21.533Z,96268.94
2023-05-01T15:30:48.351Z,96273.44
2023-05-01T15:33:18.014Z,96268.47
2023-05-01T15:35:46.880Z,96268.47
2023-05-01T15:38:13.795Z,96272.47
2023-05-01T15:40:43.586Z,96267.50
2023-05-01T15:43:10.419Z,96276.91
2023-05-01T15:45:42.867Z,96270.28
2023-05-01T15:48:11.308Z,96265.34
2023-05-01T15:50:38.260Z,96266.81
2023-05-01T15:53:05.150Z,96263.53
2023-05-01T15:55:32.125Z,96270.19
2023-05-01T15:57:59.577Z,96271.44
2023-05-01T16:00:26.465Z,96277.28
2023-05-01T16:02:53.336Z,96270.31
2023-05-01T16:05:21.415Z,96271.69
2023-05-01T16:07:55.762Z,96273.41
2023-05-01T16:10:23.466Z,96279.84
2023-05-01T16:12:50.982Z,96282.19
2023-05-01T16:15:18.369Z,96276.31
2023-05-01T16:17:46.454Z,96284.41
2023-05-01T16:20:14.897Z,96292.66
2023-05-01T16:22:43.243Z,96290.94
2023-05-01T16:25:11.578Z,96285.53
2023-05-01T16:27:47.683Z,96278.94
2023-05-01T16:30:14.962Z,96293.13
2023-05-01T16:32:43.206Z,96288.53
2023-05-01T16:35:18.323Z,96278.81
2023-05-01T16:37:45.305Z,96284.38
2023-05-01T16:40:17.679Z,96296.13
2023-05-01T16:42:51.932Z,96292.97
2023-05-01T16:45:19.392Z,96299.31
2023-05-01T16:47:46.558Z,96282.47
2023-05-01T16:50:14.055Z,96284.31
2023-05-01T16:52:44.066Z,96285.63
2023-05-01T16:55:11.560Z,96291.38
2023-05-01T16:57:38.434Z,96290.28
2023-05-01T17:00:08.800Z,96295.09
2023-05-01T17:02:36.530Z,96287.50
2023-05-01T17:05:03.774Z,96291.66
2023-05-01T17:07:31.006Z,96301.97
2023-05-01T17:09:58.754Z,96302.31
2023-05-01T17:12:27.638Z,96295.88
2023-05-01T17:14:54.710Z,96296.41
2023-05-01T17:17:22.356Z,96296.56
2023-05-01T17:19:49.427Z,96295.31
2023-05-01T17:22:16.350Z,96305.13
2023-05-01T17:24:43.198Z,96308.81
2023-05-01T17:27:10.000Z,96312.94
2023-05-01T17:29:36.893Z,96309.38
2023-05-01T17:32:04.592Z,96314.34
2023-05-01T17:34:31.475Z,96311.13
2023-05-01T17:36:58.349Z,96314.81
2023-05-01T17:39:26.930Z,96316.31
2023-05-01T17:41:53.788Z,96315.50
2023-05-01T17:44:23.570Z,96308.47
2023-05-01T17:46:51.066Z,96317.25
2023-05-01T17:49:17.953Z,96329.78
2023-05-01T17:51:45.195Z,96326.78
2023-05-01T17:54:12.311Z,96324.59
2023-05-01T17:56:39.089Z,96345.63
2023-05-01T17:59:05.915Z,96333.09
2023-05-01T18:01:33.191Z,96338.03
2023-05-01T18:04:00.159Z,96336.88
2023-05-01T18:06:27.319Z,96348.28
2023-05-01T18:08:54.202Z,96337.69
2023-05-01T18:11:21.113Z,96348.28
2023-05-01T18:13:48.173Z,96350.34
2023-05-01T18:16:15.792Z,96347.69
2023-05-01T18:18:42.965Z,96353.56
2023-05-01T18:21:10.088Z,96351.59
2023-05-01T18:23:38.656Z,96356.91
2023-05-01T18:26:06.948Z,96355.38
2023-05-01T18:28:34.596Z,96362.28
2023-05-01T18:31:01.683Z,96364.00
2023-05-01T18:33:28.641Z,96365.41
2023-05-01T18:35:57.207Z,96369.88
2023-05-01T18:38:25.454Z,96357.91
2023-05-01T18:40:54.000Z,96369.97
2023-05-01T18:43:20.840Z,96368.50
2023-05-01T18:45:48.890Z,96370.72
2023-05-01T18:48:16.060Z,96377.47
2023-05-01T18:50:45.764Z,96378.78
2023-05-01T18:53:16.215Z,96381.56
2023-05-01T18:55:43.493Z,96393.78
2023-05-01T18:58:10.546Z,96397.44
2023-05-01T19:00:37.358Z,96391.25
2023-05-01T19:03:04.402Z,96398.03
2023-05-01T19:05:31.439Z,96395.53
2023-05-01T19:08:01.774Z,96402.66
2023-05-01T19:10:28.689Z,96407.28
2023-05-01T19:12:55.718Z,96407.44
2023-05-01T19:15:22.616Z,96404.78
2023-05-01T19:17:49.525Z,96403.94
2023-05-01T19:20:16.503Z,96408.03
2023-05-01T19:22:43.392Z,96401.72
2023-05-01T19:25:10.353Z,96403.34
2023-05-01T19:27:37.314Z,96409.66
2023-05-01T19:30:05.790Z,96406.19
2023-05-01T19:32:32.630Z,96419.06
2023-05-01T19:34:59.747Z,96410.53
2023-05-01T19:37:29.751Z,96416.25
2023-05-01T19:39:56.778Z,96417.94
2023-05-01T19:42:23.796Z,96413.44
2023-05-01T19:44:50.715Z,96412.41
2023-05-01T19:47:17.684Z,96411.97
2023-05-01T19:49:45.040Z,96405.09
2023-05-01T19:52:11.881Z,96413.41
2023-05-01T19:54:38.767Z,96418.84
2023-05-01T19:57:05.833Z,96410.88
2023-05-01T19:59:32.921Z,96412.59
2023-05-01T20:02:01.488Z,96415.16
2023-05-01T20:04:28.769Z,96411.28
2023-05-01T20:06:55.697Z,96412.41
2023-05-01T20:09:22.894Z,96420.22
2023-05-01T20:11:49.758Z,96412.84
2023-05-01T20:14:16.610Z,96422.81
2023-05-01T20:16:43.493Z,96411.84
2023-05-01T20:19:10.623Z,96414.38
2023-05-01T20:21:37.459Z,96422.00
2023-05-01T20:24:04.509Z,96421.28
2023-05-01T20:26:31.466Z,96421.66
2023-05-01T20:28:58.890Z,96431.66
2023-05-01T20:31:25.814Z,96426.09
2023-05-01T20:33:53.040Z,96430.44
2023-05-01T20:36:20.509Z,96435.47
2023-05-01T20:38:48.714Z,96440.47
2023-05-01T20:41:17.122Z,96442.94
2023-05-01T20:43:44.664Z,96446.47
2023-05-01T20:46:12.457Z,96447.97
2023-05-01T20:48:39.330Z,96449.91
2023-05-01T20:51:06.251Z,96451.84
2023-05-01T20:53:33.131Z,96451.75
2023-05-01T20:55:59.969Z,96454.59
2023-05-01T20:58:26.815Z,96446.09
2023-05-01T21:00:55.255Z,96452.22
2023-05-01T21:03:22.416Z,96455.09
2023-05-01T21:05:49.358Z,96457.59
2023-05-01T21:08:16.274Z,96460.25
2023-05-01T21:10:43.121Z,96454.84
2023-05-01T21:13:10.109Z,96466.56
2023-05-01T21:15:41.281Z,96466.13
2023-05-01T21:18:11.334Z,96475.06
2023-05-01T21:20:39.704Z,96472.84
2023-05-01T21:23:06.575Z,96468.81
2023-05-01T21:25:33.645Z,96482.19
2023-05-01T21:28:03.240Z,96477.28
2023-05-01T21:30:33.445Z,96476.06
2023-05-01T21:33:02.633Z,96488.75
2023-05-01T21:35:30.364Z,96494.78
2023-05-01T21:38:00.566Z,96501.69
2023-05-01T21:40:27.602Z,96494.78
2023-05-01T21:42:55.142Z,96509.41
2023-05-01T21:45:22.728Z,96507.81
2023-05-01T21:47:51.354Z,96513.88
2023-05-01T21:50:21.145Z,96509.41
2023-05-01T21:52:49.745Z,96506.56
2023-05-01T21:55:21.311Z,96506.94
2023-05-01T21:57:50.200Z,96513.81
2023-05-01T22:00:18.988Z,96511.00
2023-05-01T22:02:48.590Z,96507.31
2023-05-01T22:05:18.373Z,96524.78
2023-05-01T22:07:47.061Z,96521.13
2023-05-01T22:10:18.135Z,96521.56
2023-05-01T22:12:45.685Z,96520.13
2023-05-01T22:15:15.294Z,96527.25
2023-05-01T22:17:42.445Z,96521.97
2023-05-01T22:20:09.783Z,96518.34
2023-05-01T22:22:38.898Z,96531.72
2023-05-01T22:25:06.718Z,96529.88
2023-05-01T22:27:34.414Z,96523.19
2023-05-01T22:30:02.381Z,96531.13
2023-05-01T22:32:29.624Z,96529.28
2023-05-01T22:34:56.707Z,96533.53
2023-05-01T22:37:25.397Z,96531.72
2023-05-01T22:39:53.432Z,96528.72
2023-05-01T22:42:20.757Z,96531.38
2023-05-01T22:44:47.628Z,96531.72
2023-05-01T22:47:14.533Z,96527.25
2023-05-01T22:49:41.551Z,96526.06
2023-05-01T22:52:08.325Z,96532.53
2023-05-01T22:54:35.383Z,96533.78
2023-05-01T22:57:02.575Z,96532.16
2023-05-01T22:59:29.441Z,96539.44
2023-05-01T23:01:56.557Z,96541.31
2023-05-01T23:04:23.476Z,96539.06
2023-05-01T23:06:50.448Z,96541.13
2023-05-01T23:09:17.777Z,96535.41
2023-05-01T23:11:47.643Z,96538.66
2023-05-01T23:14:18.071Z,96545.75
2023-05-01T23:16:44.916Z,96530.97
2023-05-01T23:19:23.344Z,96541.31
2023-05-01T23:22:04.101Z,96541.94
2023-05-01T23:24:48.428Z,96547.84
2023-05-01T23:27:19.823Z,96550.66
2023-05-01T23:29:54.900Z,96550.06
2023-05-01T23:32:30.368Z,96545.22
2023-05-01T23:35:15.673Z,96548.03
2023-05-01T23:37:43.752Z,96537.88
2023-05-01T23:40:11.103Z,96544.41
2023-05-01T23:42:39.294Z,96542.34
2023-05-01T23:45:08.093Z,96532.22
2023-05-01T23:47:35.636Z,96534.44
2023-05-01T23:50:03.174Z,96538.72
2023-05-01T23:52:30.198Z,96532.84
2023-05-01T23:54:57.104Z,96539.94
2023-05-01T23:57:24.032Z,96537.09
2023-05-01T23:59:50.841Z,96537.50
